sensor_id;sensor_type;location;lat;lon;timestamp;pressure;altitude;pressure_sealevel;temperature;humidity
66486;BME280;53303;47.476;8.084;2023-10-19T00:00:37;93919.63;;;19.03;54.54
66486;BME280;53303;47.476;8.084;2023-10-19T00:03:09;93955.22;;;19.07;54.85
66486;BME280;53303;47.476;8.084;2023-10-19T00:05:35;93932.28;;;18.98;54.68
66486;BME280;53303;47.476;8.084;2023-10-19T00:08:02;93934.59;;;19.08;54.71
66486;BME280;53303;47.476;8.084;2023-10-19T00:10:40;93932.56;;;19.08;54.78
66486;BME280;53303;47.476;8.084;2023-10-19T00:13:09;93927.53;;;19.20;54.51
66486;BME280;53303;47.476;8.084;2023-10-19T00:15:43;93913.09;;;19.14;54.56
66486;BME280;53303;47.476;8.084;2023-10-19T00:18:14;93901.81;;;19.12;54.60
66486;BME280;53303;47.476;8.084;2023-10-19T00:20:44;93903.41;;;19.20;54.77
66486;BME280;53303;47.476;8.084;2023-10-19T00:23:13;93910.31;;;19.14;54.68
66486;BME280;53303;47.476;8.084;2023-10-19T00:25:39;93899.69;;;19.18;54.63
66486;BME280;53303;47.476;8.084;2023-10-19T00:28:09;93899.34;;;19.21;54.56
66486;BME280;53303;47.476;8.084;2023-10-19T00:30:38;93893.84;;;19.21;54.55
66486;BME280;53303;47.476;8.084;2023-10-19T00:33:03;93875.84;;;18.94;54.41
66486;BME280;53303;47.476;8.084;2023-10-19T00:35:30;93879.16;;;18.92;54.54
66486;BME280;53303;47.476;8.084;2023-10-19T00:38:09;93906.34;;;19.23;54.47
66486;BME280;53303;47.476;8.084;2023-10-19T00:41:08;93850.44;;;18.95;54.40
66486;BME280;53303;47.476;8.084;2023-10-19T00:43:41;93860.50;;;19.06;54.45
66486;BME280;53303;47.476;8.084;2023-10-19T00:51:16;93870.59;;;19.03;54.53
66486;BME280;53303;47.476;8.084;2023-10-19T00:53:55;93898.06;;;19.23;54.56
66486;BME280;53303;47.476;8.084;2023-10-19T00:56:23;93833.91;;;18.82;54.42
66486;BME280;53303;47.476;8.084;2023-10-19T00:58:55;93876.81;;;19.17;54.51
66486;BME280;53303;47.476;8.084;2023-10-19T01:01:28;93859.09;;;19.13;54.47
66486;BME280;53303;47.476;8.084;2023-10-19T01:03:57;93854.28;;;19.13;54.55
66486;BME280;53303;47.476;8.084;2023-10-19T01:06:25;93853.00;;;19.14;54.62
66486;BME280;53303;47.476;8.084;2023-10-19T01:08:52;93872.09;;;19.26;54.59
66486;BME280;53303;47.476;8.084;2023-10-19T01:11:20;93874.47;;;19.21;54.68
66486;BME280;53303;47.476;8.084;2023-10-19T01:13:57;93882.78;;;19.21;54.82
66486;BME280;53303;47.476;8.084;2023-10-19T01:16:24;93852.75;;;19.05;54.64
66486;BME280;53303;47.476;8.084;2023-10-19T01:18:52;93883.91;;;19.26;54.50
66486;BME280;53303;47.476;8.084;2023-10-19T01:21:22;93868.81;;;19.27;54.73
66486;BME280;53303;47.476;8.084;2023-10-19T01:23:52;93869.13;;;19.24;54.56
66486;BME280;53303;47.476;8.084;2023-10-19T01:26:18;93862.50;;;19.27;54.62
66486;BME280;53303;47.476;8.084;2023-10-19T01:28:57;93831.44;;;19.13;54.34
66486;BME280;53303;47.476;8.084;2023-10-19T01:31:38;93851.44;;;19.27;54.61
66486;BME280;53303;47.476;8.084;2023-10-19T01:34:18;93831.50;;;19.20;54.62
66486;BME280;53303;47.476;8.084;2023-10-19T01:36:46;93826.78;;;19.29;54.60
66486;BME280;53303;47.476;8.084;2023-10-19T01:39:15;93831.16;;;19.24;54.66
66486;BME280;53303;47.476;8.084;2023-10-19T01:41:48;93834.31;;;19.28;54.57
66486;BME280;53303;47.476;8.084;2023-10-19T01:44:16;93839.66;;;19.26;54.60
66486;BME280;53303;47.476;8.084;2023-10-19T01:46:42;93824.47;;;19.19;54.65
66486;BME280;53303;47.476;8.084;2023-10-19T01:49:11;93822.66;;;19.22;54.42
66486;BME280;53303;47.476;8.084;2023-10-19T01:51:38;93829.00;;;19.30;54.61
66486;BME280;53303;47.476;8.084;2023-10-19T01:54:09;93829.00;;;19.30;54.57
66486;BME280;53303;47.476;8.084;2023-10-19T01:56:35;93826.22;;;19.30;54.65
66486;BME280;53303;47.476;8.084;2023-10-19T01:59:07;93834.53;;;19.30;54.34
66486;BME280;53303;47.476;8.084;2023-10-19T02:01:36;93803.19;;;19.07;54.54
66486;BME280;53303;47.476;8.084;2023-10-19T02:04:05;93814.38;;;19.22;54.58
66486;BME280;53303;47.476;8.084;2023-10-19T02:06:34;93813.31;;;19.25;54.29
66486;BME280;53303;47.476;8.084;2023-10-19T02:11:46;93754.03;;;18.92;54.58
66486;BME280;53303;47.476;8.084;2023-10-19T02:14:13;93801.44;;;19.17;54.42
66486;BME280;53303;47.476;8.084;2023-10-19T02:16:46;93811.13;;;19.31;54.52
66486;BME280;53303;47.476;8.084;2023-10-19T02:19:13;93815.38;;;19.32;54.55
66486;BME280;53303;47.476;8.084;2023-10-19T02:21:39;93822.38;;;19.33;54.42
66486;BME280;53303;47.476;8.084;2023-10-19T02:24:10;93815.38;;;19.32;54.33
66486;BME280;53303;47.476;8.084;2023-10-19T02:26:45;93819.75;;;19.28;54.34
66486;BME280;53303;47.476;8.084;2023-10-19T02:29:14;93808.16;;;19.29;54.32
66486;BME280;53303;47.476;8.084;2023-10-19T02:31:43;93790.97;;;19.23;54.61
66486;BME280;53303;47.476;8.084;2023-10-19T02:34:10;93807.63;;;19.31;54.41
66486;BME280;53303;47.476;8.084;2023-10-19T02:36:38;93804.31;;;19.32;54.42
66486;BME280;53303;47.476;8.084;2023-10-19T02:39:07;93744.59;;;18.87;54.31
66486;BME280;53303;47.476;8.084;2023-10-19T02:41:40;93792.91;;;19.36;54.42
66486;BME280;53303;47.476;8.084;2023-10-19T02:44:13;93748.72;;;18.94;54.35
66486;BME280;53303;47.476;8.084;2023-10-19T02:46:42;93789.38;;;19.35;54.47
66486;BME280;53303;47.476;8.084;2023-10-19T02:49:09;93767.28;;;19.14;54.25
66486;BME280;53303;47.476;8.084;2023-10-19T02:51:46;93777.75;;;19.29;54.04
66486;BME280;53303;47.476;8.084;2023-10-19T02:54:14;93787.13;;;19.26;54.34
66486;BME280;53303;47.476;8.084;2023-10-19T02:56:53;93759.13;;;19.09;54.34
66486;BME280;53303;47.476;8.084;2023-10-19T02:59:20;93797.69;;;19.35;54.27
66486;BME280;53303;47.476;8.084;2023-10-19T03:01:54;93779.63;;;19.34;54.47
66486;BME280;53303;47.476;8.084;2023-10-19T03:04:27;93766.16;;;19.31;54.43
66486;BME280;53303;47.476;8.084;2023-10-19T03:06:55;93752.59;;;19.19;54.44
66486;BME280;53303;47.476;8.084;2023-10-19T03:09:23;93762.50;;;19.36;54.40
66486;BME280;53303;47.476;8.084;2023-10-19T03:11:55;93770.88;;;19.23;54.80
66486;BME280;53303;47.476;8.084;2023-10-19T03:14:25;93745.44;;;19.24;54.46
66486;BME280;53303;47.476;8.084;2023-10-19T03:16:53;93750.44;;;19.26;54.38
66486;BME280;53303;47.476;8.084;2023-10-19T03:19:22;93748.25;;;19.32;54.29
66486;BME280;53303;47.476;8.084;2023-10-19T03:21:50;93738.56;;;19.17;54.37
66486;BME280;53303;47.476;8.084;2023-10-19T03:24:19;93718.63;;;19.11;54.08
66486;BME280;53303;47.476;8.084;2023-10-19T03:29:46;93719.56;;;19.14;54.19
66486;BME280;53303;47.476;8.084;2023-10-19T03:32:13;93727.94;;;19.21;54.37
66486;BME280;53303;47.476;8.084;2023-10-19T03:34:39;93728.84;;;19.24;54.27
66486;BME280;53303;47.476;8.084;2023-10-19T03:37:08;93726.81;;;19.25;54.29
66486;BME280;53303;47.476;8.084;2023-10-19T03:39:39;93718.13;;;19.20;54.26
66486;BME280;53303;47.476;8.084;2023-10-19T03:42:05;93729.50;;;19.38;54.24
66486;BME280;53303;47.476;8.084;2023-10-19T03:44:32;93717.06;;;19.24;54.29
66486;BME280;53303;47.476;8.084;2023-10-19T03:47:24;93712.44;;;19.26;54.20
66486;BME280;53303;47.476;8.084;2023-10-19T03:50:02;93729.38;;;19.23;54.53
66486;BME280;53303;47.476;8.084;2023-10-19T03:52:39;93717.09;;;19.31;54.43
66486;BME280;53303;47.476;8.084;2023-10-19T03:55:08;93716.91;;;19.29;54.42
66486;BME280;53303;47.476;8.084;2023-10-19T03:57:37;93677.94;;;18.91;54.40
66486;BME280;53303;47.476;8.084;2023-10-19T04:00:07;93724.84;;;19.33;54.20
66486;BME280;53303;47.476;8.084;2023-10-19T04:02:41;93693.59;;;19.17;54.38
66486;BME280;53303;47.476;8.084;2023-10-19T04:05:08;93701.34;;;19.18;54.74
66486;BME280;53303;47.476;8.084;2023-10-19T04:07:35;93723.38;;;19.32;56.09
66486;BME280;53303;47.476;8.084;2023-10-19T04:10:01;93664.72;;;18.97;55.73
66486;BME280;53303;47.476;8.084;2023-10-19T04:12:36;93701.00;;;19.22;55.05
66486;BME280;53303;47.476;8.084;2023-10-19T04:15:04;93705.03;;;19.21;54.90
66486;BME280;53303;47.476;8.084;2023-10-19T04:17:37;93695.41;;;19.14;54.89
66486;BME280;53303;47.476;8.084;2023-10-19T04:20:08;93692.66;;;19.14;54.96
66486;BME280;53303;47.476;8.084;2023-10-19T04:22:46;93708.97;;;19.26;54.78
66486;BME280;53303;47.476;8.084;2023-10-19T04:25:16;93691.91;;;19.14;54.66
66486;BME280;53303;47.476;8.084;2023-10-19T04:27:44;93673.22;;;18.99;54.63
66486;BME280;53303;47.476;8.084;2023-10-19T04:30:10;93675.66;;;19.10;54.77
66486;BME280;53303;47.476;8.084;2023-10-19T04:32:53;93694.41;;;19.25;54.61
66486;BME280;53303;47.476;8.084;2023-10-19T04:35:22;93670.13;;;19.10;54.68
66486;BME280;53303;47.476;8.084;2023-10-19T04:37:56;93694.41;;;19.25;54.52
66486;BME280;53303;47.476;8.084;2023-10-19T04:40:24;93687.00;;;19.20;54.61
66486;BME280;53303;47.476;8.084;2023-10-19T04:42:53;93697.56;;;19.29;54.58
66486;BME280;53303;47.476;8.084;2023-10-19T04:45:19;93636.09;;;18.87;54.45
66486;BME280;53303;47.476;8.084;2023-10-19T04:47:45;93679.06;;;19.24;54.40
66486;BME280;53303;47.476;8.084;2023-10-19T04:50:12;93671.28;;;19.15;54.50
66486;BME280;53303;47.476;8.084;2023-10-19T04:52:39;93634.72;;;19.01;54.63
66486;BME280;53303;47.476;8.084;2023-10-19T04:55:05;93680.75;;;19.27;54.55
66486;BME280;53303;47.476;8.084;2023-10-19T04:57:31;93677.81;;;19.25;54.49
66486;BME280;53303;47.476;8.084;2023-10-19T04:59:57;93676.69;;;19.28;54.29
66486;BME280;53303;47.476;8.084;2023-10-19T05:02:25;93657.06;;;19.11;54.52
66486;BME280;53303;47.476;8.084;2023-10-19T05:04:50;93669.84;;;19.21;54.48
66486;BME280;53303;47.476;8.084;2023-10-19T05:07:18;93664.09;;;19.19;54.41
66486;BME280;53303;47.476;8.084;2023-10-19T05:09:49;93673.00;;;19.26;54.61
66486;BME280;53303;47.476;8.084;2023-10-19T05:12:14;93638.81;;;19.08;54.42
66486;BME280;53303;47.476;8.084;2023-10-19T05:14:40;93661.22;;;19.25;54.51
66486;BME280;53303;47.476;8.084;2023-10-19T05:17:09;93657.31;;;19.20;54.49
66486;BME280;53303;47.476;8.084;2023-10-19T05:19:41;93660.41;;;19.17;54.57
66486;BME280;53303;47.476;8.084;2023-10-19T05:22:09;93659.53;;;19.22;54.57
66486;BME280;53303;47.476;8.084;2023-10-19T05:24:37;93643.78;;;19.09;54.49
66486;BME280;53303;47.476;8.084;2023-10-19T05:27:03;93648.63;;;19.16;54.57
66486;BME280;53303;47.476;8.084;2023-10-19T05:29:31;93658.22;;;19.23;54.13
66486;BME280;53303;47.476;8.084;2023-10-19T05:31:58;93622.72;;;18.98;54.58
66486;BME280;53303;47.476;8.084;2023-10-19T05:34:27;93650.09;;;19.17;54.48
66486;BME280;53303;47.476;8.084;2023-10-19T05:36:54;93644.91;;;19.14;54.46
66486;BME280;53303;47.476;8.084;2023-10-19T05:39:23;93615.88;;;18.92;54.63
66486;BME280;53303;47.476;8.084;2023-10-19T05:41:53;93603.84;;;18.89;54.66
66486;BME280;53303;47.476;8.084;2023-10-19T05:44:19;93631.22;;;19.00;54.39
66486;BME280;53303;47.476;8.084;2023-10-19T05:46:44;93637.16;;;19.12;54.54
66486;BME280;53303;47.476;8.084;2023-10-19T05:49:12;93653.75;;;19.12;54.36
66486;BME280;53303;47.476;8.084;2023-10-19T05:51:37;93626.03;;;18.97;54.68
66486;BME280;53303;47.476;8.084;2023-10-19T05:54:04;93642.34;;;19.16;54.59
66486;BME280;53303;47.476;8.084;2023-10-19T05:56:30;93639.22;;;19.19;54.49
66486;BME280;53303;47.476;8.084;2023-10-19T05:58:56;93592.22;;;18.83;54.65
66486;BME280;53303;47.476;8.084;2023-10-19T06:01:24;93619.41;;;19.00;54.56
66486;BME280;53303;47.476;8.084;2023-10-19T06:03:49;93619.03;;;19.03;54.57
66486;BME280;53303;47.476;8.084;2023-10-19T06:06:16;93636.09;;;19.15;54.63
66486;BME280;53303;47.476;8.084;2023-10-19T06:08:41;93612.22;;;18.97;54.73
66486;BME280;53303;47.476;8.084;2023-10-19T06:11:07;93633.84;;;19.14;54.73
66486;BME280;53303;47.476;8.084;2023-10-19T06:13:34;93635.69;;;19.11;54.74
66486;BME280;53303;47.476;8.084;2023-10-19T06:16:02;93635.69;;;19.11;54.95
66486;BME280;53303;47.476;8.084;2023-10-19T06:18:28;93643.56;;;19.07;54.58
66486;BME280;53303;47.476;8.084;2023-10-19T06:20:54;93636.94;;;19.02;54.79
66486;BME280;53303;47.476;8.084;2023-10-19T06:23:20;93647.50;;;19.12;54.74
66486;BME280;53303;47.476;8.084;2023-10-19T06:25:45;93607.72;;;18.86;54.81
66486;BME280;53303;47.476;8.084;2023-10-19T06:28:12;93639.91;;;19.12;54.76
66486;BME280;53303;47.476;8.084;2023-10-19T06:30:37;93615.16;;;18.99;54.93
66486;BME280;53303;47.476;8.084;2023-10-19T06:33:03;93628.47;;;19.08;54.90
66486;BME280;53303;47.476;8.084;2023-10-19T06:35:32;93633.66;;;19.12;54.81
66486;BME280;53303;47.476;8.084;2023-10-19T06:38:01;93630.91;;;19.12;54.92
66486;BME280;53303;47.476;8.084;2023-10-19T06:40:27;93601.50;;;18.93;54.84
66486;BME280;53303;47.476;8.084;2023-10-19T06:42:55;93623.88;;;19.11;54.94
66486;BME280;53303;47.476;8.084;2023-10-19T06:45:24;93595.97;;;18.93;54.79
66486;BME280;53303;47.476;8.084;2023-10-19T06:47:51;93619.03;;;19.03;54.94
66486;BME280;53303;47.476;8.084;2023-10-19T06:50:22;93623.50;;;19.07;54.99
66486;BME280;53303;47.476;8.084;2023-10-19T06:52:51;93617.94;;;18.99;54.87
66486;BME280;53303;47.476;8.084;2023-10-19T06:55:17;93622.75;;;19.06;55.06
66486;BME280;53303;47.476;8.084;2023-10-19T06:57:54;93613.53;;;19.03;55.07
66486;BME280;53303;47.476;8.084;2023-10-19T07:00:22;93611.09;;;19.00;54.90
66486;BME280;53303;47.476;8.084;2023-10-19T07:02:54;93624.44;;;19.09;55.10
66486;BME280;53303;47.476;8.084;2023-10-19T07:05:21;93607.78;;;19.01;54.97
66486;BME280;53303;47.476;8.084;2023-10-19T07:07:48;93620.19;;;19.08;55.13
66486;BME280;53303;47.476;8.084;2023-10-19T07:10:15;93618.16;;;19.09;55.07
66486;BME280;53303;47.476;8.084;2023-10-19T07:12:46;93614.09;;;19.02;55.03
66486;BME280;53303;47.476;8.084;2023-10-19T07:15:12;93599.13;;;18.97;55.15
66486;BME280;53303;47.476;8.084;2023-10-19T07:17:45;93599.69;;;19.03;54.88
66486;BME280;53303;47.476;8.084;2023-10-19T07:20:13;93610.41;;;19.07;55.07
66486;BME280;53303;47.476;8.084;2023-10-19T07:22:55;93583.44;;;18.92;55.15
66486;BME280;53303;47.476;8.084;2023-10-19T07:25:22;93598.63;;;19.07;55.18
66486;BME280;53303;47.476;8.084;2023-10-19T07:27:49;93576.81;;;18.95;55.08
66486;BME280;53303;47.476;8.084;2023-10-19T07:30:15;93578.78;;;18.87;55.07
66486;BME280;53303;47.476;8.084;2023-10-19T07:32:46;93596.19;;;19.03;55.24
66486;BME280;53303;47.476;8.084;2023-10-19T07:35:11;93583.63;;;18.94;55.03
66486;BME280;53303;47.476;8.084;2023-10-19T07:37:37;93605.44;;;19.06;55.19
66486;BME280;53303;47.476;8.084;2023-10-19T07:40:04;93588.06;;;18.97;55.22
66486;BME280;53303;47.476;8.084;2023-10-19T07:42:32;93554.59;;;18.80;55.25
66486;BME280;53303;47.476;8.084;2023-10-19T07:45:02;93577.16;;;18.92;55.19
66486;BME280;53303;47.476;8.084;2023-10-19T07:47:27;93581.63;;;18.95;55.17
66486;BME280;53303;47.476;8.084;2023-10-19T07:49:53;93580.47;;;18.90;55.04
66486;BME280;53303;47.476;8.084;2023-10-19T07:52:21;93584.22;;;19.00;55.10
66486;BME280;53303;47.476;8.084;2023-10-19T07:54:48;93581.84;;;19.05;55.26
66486;BME280;53303;47.476;8.084;2023-10-19T07:57:14;93575.53;;;18.96;55.11
66486;BME280;53303;47.476;8.084;2023-10-19T07:59:44;93555.78;;;18.92;55.15
66486;BME280;53303;47.476;8.084;2023-10-19T08:02:10;93566.31;;;18.94;55.15
66486;BME280;53303;47.476;8.084;2023-10-19T08:04:35;93525.97;;;18.70;55.25
66486;BME280;53303;47.476;8.084;2023-10-19T08:07:01;93545.25;;;18.83;55.18
66486;BME280;53303;47.476;8.084;2023-10-19T08:09:29;93568.03;;;19.05;55.27
66486;BME280;53303;47.476;8.084;2023-10-19T08:11:59;93560.81;;;19.01;55.16
66486;BME280;53303;47.476;8.084;2023-10-19T08:14:27;93517.69;;;18.70;55.41
66486;BME280;53303;47.476;8.084;2023-10-19T08:16:53;93553.03;;;18.92;55.17
66486;BME280;53303;47.476;8.084;2023-10-19T08:19:19;93541.00;;;18.82;55.15
66486;BME280;53303;47.476;8.084;2023-10-19T08:21:47;93551.34;;;18.89;55.38
66486;BME280;53303;47.476;8.084;2023-10-19T08:24:15;93543.81;;;18.90;55.24
66486;BME280;53303;47.476;8.084;2023-10-19T08:26:44;93570.06;;;19.04;55.37
66486;BME280;53303;47.476;8.084;2023-10-19T08:29:11;93574.28;;;19.05;55.42
66486;BME280;53303;47.476;8.084;2023-10-19T08:31:43;93548.81;;;18.91;55.26
66486;BME280;53303;47.476;8.084;2023-10-19T08:34:14;93572.06;;;19.03;55.34
66486;BME280;53303;47.476;8.084;2023-10-19T08:36:42;93560.06;;;18.93;55.23
66486;BME280;53303;47.476;8.084;2023-10-19T08:39:11;93563.19;;;18.97;55.18
66486;BME280;53303;47.476;8.084;2023-10-19T08:41:41;93542.50;;;18.91;55.26
66486;BME280;53303;47.476;8.084;2023-10-19T08:44:09;93536.81;;;18.89;55.38
66486;BME280;53303;47.476;8.084;2023-10-19T08:46:44;93561.00;;;19.03;55.30
66486;BME280;53303;47.476;8.084;2023-10-19T08:49:14;93568.91;;;18.99;55.33
66486;BME280;53303;47.476;8.084;2023-10-19T08:51:54;93536.75;;;18.81;55.36
66486;BME280;53303;47.476;8.084;2023-10-19T08:54:22;93559.53;;;19.02;55.38
66486;BME280;53303;47.476;8.084;2023-10-19T08:56:47;93550.47;;;18.94;55.29
66486;BME280;53303;47.476;8.084;2023-10-19T08:59:13;93553.41;;;18.96;55.25
66486;BME280;53303;47.476;8.084;2023-10-19T09:01:42;93557.66;;;18.97;55.15
66486;BME280;53303;47.476;8.084;2023-10-19T09:04:13;93557.84;;;18.99;55.12
66486;BME280;53303;47.476;8.084;2023-10-19T09:06:39;93567.28;;;19.04;55.37
66486;BME280;53303;47.476;8.084;2023-10-19T09:09:11;93560.63;;;18.99;55.30
66486;BME280;53303;47.476;8.084;2023-10-19T09:11:45;93563.75;;;19.03;55.27
66486;BME280;53303;47.476;8.084;2023-10-19T09:14:12;93534.56;;;18.87;55.38
66486;BME280;53303;47.476;8.084;2023-10-19T09:16:58;93553.41;;;18.96;55.25
66486;BME280;53303;47.476;8.084;2023-10-19T09:19:43;93534.94;;;18.83;55.42
66486;BME280;53303;47.476;8.084;2023-10-19T09:22:10;93537.75;;;18.91;55.31
66486;BME280;53303;47.476;8.084;2023-10-19T09:24:47;93534.19;;;18.83;55.38
66486;BME280;53303;47.476;8.084;2023-10-19T09:27:16;93533.47;;;18.82;54.97
66486;BME280;53303;47.476;8.084;2023-10-19T09:29:42;93551.59;;;18.99;55.31
66486;BME280;53303;47.476;8.084;2023-10-19T09:32:08;93553.28;;;19.02;55.33
66486;BME280;53303;47.476;8.084;2023-10-19T09:34:34;93548.47;;;19.02;55.39
66486;BME280;53303;47.476;8.084;2023-10-19T09:37:03;93536.44;;;18.92;55.21
66486;BME280;53303;47.476;8.084;2023-10-19T09:39:30;93543.69;;;19.03;55.23
66486;BME280;53303;47.476;8.084;2023-10-19T09:42:11;93514.31;;;18.85;55.31
66486;BME280;53303;47.476;8.084;2023-10-19T09:44:59;93523.34;;;18.93;55.30
66486;BME280;53303;47.476;8.084;2023-10-19T09:47:35;93518.75;;;18.88;55.39
66486;BME280;53303;47.476;8.084;2023-10-19T09:50:02;93529.13;;;19.02;55.28
66486;BME280;53303;47.476;8.084;2023-10-19T09:52:31;93518.81;;;19.03;55.30
66486;BME280;53303;47.476;8.084;2023-10-19T09:55:05;93499.25;;;18.93;55.31
66486;BME280;53303;47.476;8.084;2023-10-19T09:57:41;93500.16;;;18.96;55.12
66486;BME280;53303;47.476;8.084;2023-10-19T10:00:11;93483.16;;;18.84;55.33
66486;BME280;53303;47.476;8.084;2023-10-19T10:02:42;93502.38;;;18.97;55.35
66486;BME280;53303;47.476;8.084;2023-10-19T10:10:45;93489.66;;;18.94;55.35
66486;BME280;53303;47.476;8.084;2023-10-19T10:13:38;93503.31;;;19.00;55.31
66486;BME280;53303;47.476;8.084;2023-10-19T10:16:04;93495.59;;;18.98;55.51
66486;BME280;53303;47.476;8.084;2023-10-19T10:18:31;93479.19;;;19.00;55.40
66486;BME280;53303;47.476;8.084;2023-10-19T10:26:11;93445.41;;;18.87;55.26
66486;BME280;53303;47.476;8.084;2023-10-19T10:28:39;93459.31;;;19.02;55.39
66486;BME280;53303;47.476;8.084;2023-10-19T10:33:39;93460.94;;;19.05;55.49
66486;BME280;53303;47.476;8.084;2023-10-19T10:36:08;93439.16;;;18.86;55.26
66486;BME280;53303;47.476;8.084;2023-10-19T10:38:35;93460.41;;;19.07;55.41
66486;BME280;53303;47.476;8.084;2023-10-19T10:41:01;93454.88;;;19.07;55.45
66486;BME280;53303;47.476;8.084;2023-10-19T10:43:29;93441.22;;;18.93;55.42
66486;BME280;53303;47.476;8.084;2023-10-19T10:46:05;93457.63;;;19.07;55.44
66486;BME280;53303;47.476;8.084;2023-10-19T10:48:33;93427.75;;;18.90;55.46
66486;BME280;53303;47.476;8.084;2023-10-19T10:50:58;93422.59;;;18.94;55.41
66486;BME280;53303;47.476;8.084;2023-10-19T10:53:24;93449.53;;;19.09;55.64
66486;BME280;53303;47.476;8.084;2023-10-19T10:55:52;93440.50;;;19.00;55.49
66486;BME280;53303;47.476;8.084;2023-10-19T10:58:18;93451.75;;;19.10;55.63
66486;BME280;53303;47.476;8.084;2023-10-19T11:00:44;93422.19;;;18.82;55.74
66486;BME280;53303;47.476;8.084;2023-10-19T11:03:12;93455.25;;;19.11;55.76
66486;BME280;53303;47.476;8.084;2023-10-19T11:05:39;93414.66;;;18.82;55.84
66486;BME280;53303;47.476;8.084;2023-10-19T11:08:12;93442.72;;;19.10;55.67
66486;BME280;53303;47.476;8.084;2023-10-19T11:10:47;93413.06;;;19.10;55.86
66486;BME280;53303;47.476;8.084;2023-10-19T11:13:17;93405.84;;;19.07;56.08
66486;BME280;53303;47.476;8.084;2023-10-19T11:15:54;93428.19;;;19.09;56.05
66486;BME280;53303;47.476;8.084;2023-10-19T11:20:58;93433.31;;;19.05;56.23
66486;BME280;53303;47.476;8.084;2023-10-19T11:23:41;93431.31;;;19.06;56.36
66486;BME280;53303;47.476;8.084;2023-10-19T11:26:13;93410.63;;;18.99;56.31
66486;BME280;53303;47.476;8.084;2023-10-19T11:28:40;93430.38;;;19.11;56.29
66486;BME280;53303;47.476;8.084;2023-10-19T11:31:14;93427.59;;;19.11;56.41
66486;BME280;53303;47.476;8.084;2023-10-19T11:33:43;93375.72;;;18.80;56.53
66486;BME280;53303;47.476;8.084;2023-10-19T11:36:11;93407.16;;;19.06;56.22
66486;BME280;53303;47.476;8.084;2023-10-19T11:38:47;93390.72;;;18.93;56.49
66486;BME280;53303;47.476;8.084;2023-10-19T11:41:16;93398.47;;;18.94;56.68
66486;BME280;53303;47.476;8.084;2023-10-19T11:43:45;93429.09;;;19.12;56.61
66486;BME280;53303;47.476;8.084;2023-10-19T11:46:17;93430.38;;;19.11;56.70
66486;BME280;53303;47.476;8.084;2023-10-19T11:48:50;93432.41;;;19.10;56.92
66486;BME280;53303;47.476;8.084;2023-10-19T11:51:18;93406.00;;;18.94;56.95
66486;BME280;53303;47.476;8.084;2023-10-19T11:53:46;93375.72;;;18.80;56.92
66486;BME280;53303;47.476;8.084;2023-10-19T11:56:12;93401.56;;;18.91;56.75
66486;BME280;53303;47.476;8.084;2023-10-19T11:58:39;93408.97;;;18.96;56.97
66486;BME280;53303;47.476;8.084;2023-10-19T12:01:09;93423.00;;;19.06;56.87
66486;BME280;53303;47.476;8.084;2023-10-19T12:03:37;93427.06;;;19.12;56.94
66486;BME280;53303;47.476;8.084;2023-10-19T12:06:05;93428.91;;;19.10;57.03
66486;BME280;53303;47.476;8.084;2023-10-19T12:08:34;93432.59;;;19.12;57.14
66486;BME280;53303;47.476;8.084;2023-10-19T12:11:01;93415.25;;;19.04;57.10
66486;BME280;53303;47.476;8.084;2023-10-19T12:13:30;93400.31;;;18.92;57.20
66486;BME280;53303;47.476;8.084;2023-10-19T12:16:00;93424.47;;;19.07;57.16
66486;BME280;53303;47.476;8.084;2023-10-19T12:18:29;93416.75;;;19.13;57.11
66486;BME280;53303;47.476;8.084;2023-10-19T12:20:57;93388.16;;;19.02;57.37
66486;BME280;53303;47.476;8.084;2023-10-19T12:23:25;93380.25;;;18.99;57.38
66486;BME280;53303;47.476;8.084;2023-10-19T12:25:53;93358.63;;;18.82;57.25
66486;BME280;53303;47.476;8.084;2023-10-19T12:28:19;93369.91;;;18.99;57.31
66486;BME280;53303;47.476;8.084;2023-10-19T12:30:47;93368.09;;;19.10;57.26
66486;BME280;53303;47.476;8.084;2023-10-19T12:33:12;93302.78;;;18.76;57.38
66486;BME280;53303;47.476;8.084;2023-10-19T12:35:41;93358.13;;;19.14;57.23
66486;BME280;53303;47.476;8.084;2023-10-19T12:38:25;93353.19;;;19.13;57.35
66486;BME280;53303;47.476;8.084;2023-10-19T12:40:54;93323.50;;;19.06;57.55
66486;BME280;53303;47.476;8.084;2023-10-19T12:43:19;93333.44;;;19.09;57.58
66486;BME280;53303;47.476;8.084;2023-10-19T12:45:47;93322.38;;;19.09;57.60
66486;BME280;53303;47.476;8.084;2023-10-19T12:48:19;93299.34;;;18.98;57.43
66486;BME280;53303;47.476;8.084;2023-10-19T12:50:46;93336.78;;;19.15;57.64
66486;BME280;53303;47.476;8.084;2023-10-19T12:53:11;93345.78;;;19.15;57.64
66486;BME280;53303;47.476;8.084;2023-10-19T12:55:39;93341.00;;;19.16;57.65
66486;BME280;53303;47.476;8.084;2023-10-19T12:58:05;93310.22;;;18.96;57.55
66486;BME280;53303;47.476;8.084;2023-10-19T13:00:35;93339.72;;;19.17;57.65
66486;BME280;53303;47.476;8.084;2023-10-19T13:03:10;93340.63;;;19.12;57.75
66486;BME280;53303;47.476;8.084;2023-10-19T13:05:40;93341.19;;;19.10;57.76
66486;BME280;53303;47.476;8.084;2023-10-19T13:08:11;93351.69;;;19.19;57.90
66486;BME280;53303;47.476;8.084;2023-10-19T13:10:41;93313.19;;;18.98;57.78
66486;BME280;53303;47.476;8.084;2023-10-19T13:13:14;93331.78;;;19.13;57.83
66486;BME280;53303;47.476;8.084;2023-10-19T13:15:44;93328.13;;;19.18;57.84
66486;BME280;53303;47.476;8.084;2023-10-19T13:18:12;93315.22;;;19.13;57.84
66486;BME280;53303;47.476;8.084;2023-10-19T13:20:46;93323.69;;;19.15;57.95
66486;BME280;53303;47.476;8.084;2023-10-19T13:23:13;93304.88;;;19.06;57.82
66486;BME280;53303;47.476;8.084;2023-10-19T13:25:47;93301.03;;;19.09;57.91
66486;BME280;53303;47.476;8.084;2023-10-19T13:28:19;93312.44;;;19.21;57.89
66486;BME280;53303;47.476;8.084;2023-10-19T13:30:52;93313.75;;;19.20;57.89
66486;BME280;53303;47.476;8.084;2023-10-19T13:33:19;93304.31;;;19.23;57.90
66486;BME280;53303;47.476;8.084;2023-10-19T13:35:47;93298.06;;;19.23;57.90
66486;BME280;53303;47.476;8.084;2023-10-19T13:38:14;93280.19;;;19.08;57.96